createdAt,value
2023-03-06T00:00:53.101Z,96892.06
2023-03-06T00:03:20.607Z,96891.03
2023-03-06T00:05:49.242Z,96888.63
2023-03-06T00:08:16.381Z,96885.75
2023-03-06T00:10:43.496Z,96874.97
2023-03-06T00:13:13.556Z,96873.66
2023-03-06T00:15:41.100Z,96864.28
2023-03-06T00:18:08.504Z,96866.47
2023-03-06T00:20:36.126Z,96868.34
2023-03-06T00:23:04.545Z,96872.56
2023-03-06T00:25:31.630Z,96869.78
2023-03-06T00:27:58.744Z,96873.81
2023-03-06T00:30:25.911Z,96874.63
2023-03-06T00:32:53.778Z,96863.84
2023-03-06T00:35:21.114Z,96845.75
2023-03-06T00:37:48.248Z,96860.38
2023-03-06T00:40:19.145Z,96857.97
2023-03-06T00:42:47.193Z,96862.03
2023-03-06T00:45:14.806Z,96840.97
2023-03-06T00:47:41.974Z,96855.84
2023-03-06T00:50:10.793Z,96850.47
2023-03-06T00:52:38.109Z,96847.00
2023-03-06T00:55:06.415Z,96847.66
2023-03-06T00:57:34.831Z,96844.72
2023-03-06T01:00:02.277Z,96836.66
2023-03-06T01:02:29.514Z,96827.81
2023-03-06T01:04:57.273Z,96815.00
2023-03-06T01:07:24.387Z,96826.47
2023-03-06T01:09:51.475Z,96830.72
2023-03-06T01:12:18.708Z,96826.19
2023-03-06T01:14:47.121Z,96815.38
2023-03-06T01:17:14.269Z,96818.28
2023-03-06T01:19:41.863Z,96811.81
2023-03-06T01:22:08.976Z,96799.25
2023-03-06T01:24:36.124Z,96794.66
2023-03-06T01:27:03.679Z,96792.34
2023-03-06T01:29:30.766Z,96802.16
2023-03-06T01:31:59.324Z,96793.28
2023-03-06T01:34:26.547Z,96784.19
2023-03-06T01:36:53.652Z,96778.09
2023-03-06T01:39:20.734Z,96785.59
2023-03-06T01:41:47.838Z,96789.66
2023-03-06T01:44:14.920Z,96781.09
2023-03-06T01:46:42.151Z,96770.13
2023-03-06T01:49:15.076Z,96773.88
2023-03-06T01:51:48.897Z,96770.78
2023-03-06T01:54:20.839Z,96776.84
2023-03-06T01:56:51.194Z,96779.75
2023-03-06T01:59:18.826Z,96771.13
2023-03-06T02:01:47.313Z,96763.13
2023-03-06T02:04:17.109Z,96764.00
2023-03-06T02:06:44.763Z,96750.34
2023-03-06T02:09:12.964Z,96750.06
2023-03-06T02:11:41.311Z,96742.13
2023-03-06T02:14:08.535Z,96750.91
2023-03-06T02:16:35.764Z,96725.78
2023-03-06T02:19:07.305Z,96739.66
2023-03-06T02:21:37.323Z,96735.06
2023-03-06T02:24:15.953Z,96729.19
2023-03-06T02:26:44.726Z,96735.06
2023-03-06T02:29:11.854Z,96719.72
2023-03-06T02:31:38.978Z,96720.72
2023-03-06T02:34:28.485Z,96721.50
2023-03-06T02:37:00.277Z,96718.31
2023-03-06T02:39:32.261Z,96721.78
2023-03-06T02:42:00.729Z,96695.06
2023-03-06T02:44:28.515Z,96697.53
2023-03-06T02:46:55.643Z,96707.84
2023-03-06T02:49:24.381Z,96716.13
2023-03-06T02:51:52.491Z,96712.84
2023-03-06T02:54:19.757Z,96712.56
2023-03-06T02:56:46.838Z,96704.78
2023-03-06T02:59:15.254Z,96711.25
2023-03-06T03:01:42.415Z,96705.59
2023-03-06T03:04:09.976Z,96703.47
2023-03-06T03:06:37.215Z,96703.19
2023-03-06T03:09:04.446Z,96700.78
2023-03-06T03:11:31.539Z,96703.19
2023-03-06T03:13:58.695Z,96696.53
2023-03-06T03:16:27.264Z,96697.59
2023-03-06T03:18:54.364Z,96697.38
2023-03-06T03:21:21.468Z,96695.88
2023-03-06T03:23:48.594Z,96690.56
2023-03-06T03:26:18.251Z,96671.13
2023-03-06T03:28:45.563Z,96691.28
2023-03-06T03:31:13.356Z,96679.81
2023-03-06T03:33:41.841Z,96682.94
2023-03-06T03:36:09.244Z,96673.63
2023-03-06T03:38:36.377Z,96680.44
2023-03-06T03:41:04.440Z,96681.69
2023-03-06T03:43:31.962Z,96683.59
2023-03-06T03:45:59.072Z,96671.63
2023-03-06T03:48:26.191Z,96669.88
2023-03-06T03:50:54.610Z,96661.59
2023-03-06T03:53:21.738Z,96652.09
2023-03-06T03:55:48.919Z,96647.34
2023-03-06T03:58:16.031Z,96653.50
2023-03-06T04:00:43.160Z,96644.72
2023-03-06T04:03:10.255Z,96652.50
2023-03-06T04:05:37.343Z,96653.38
2023-03-06T04:08:06.081Z,96648.22
2023-03-06T04:10:33.190Z,96645.22
2023-03-06T04:13:00.326Z,96640.72
2023-03-06T04:15:27.514Z,96644.03
2023-03-06T04:17:54.592Z,96633.56
2023-03-06T04:20:21.695Z,96639.84
2023-03-06T04:22:49.028Z,96638.44
2023-03-06T04:25:17.685Z,96630.09
2023-03-06T04:27:44.770Z,96628.09
2023-03-06T04:30:13.037Z,96641.72
2023-03-06T04:32:40.200Z,96635.94
2023-03-06T04:35:07.804Z,96638.94
2023-03-06T04:37:35.007Z,96641.63
2023-03-06T04:40:02.252Z,96631.56
2023-03-06T04:42:30.982Z,96629.16
2023-03-06T04:44:58.083Z,96627.25
2023-03-06T04:47:25.157Z,96625.97
2023-03-06T04:49:52.221Z,96620.88
2023-03-06T04:52:19.862Z,96620.31
2023-03-06T04:54:46.945Z,96615.22
2023-03-06T04:57:14.043Z,96618.28
2023-03-06T04:59:42.588Z,96607.34
2023-03-06T05:02:09.702Z,96612.09
2023-03-06T05:04:37.001Z,96603.28
2023-03-06T05:07:04.179Z,96605.69
2023-03-06T05:09:31.284Z,96603.00
2023-03-06T05:11:58.404Z,96598.66
2023-03-06T05:14:25.518Z,96598.38
2023-03-06T05:16:53.921Z,96606.66
2023-03-06T05:19:21.028Z,96601.56
2023-03-06T05:21:48.257Z,96603.16
2023-03-06T05:24:15.405Z,96596.88
2023-03-06T05:26:42.609Z,96599.16
2023-03-06T05:29:09.727Z,96595.41
2023-03-06T05:31:36.960Z,96593.00
2023-03-06T05:34:05.444Z,96597.00
2023-03-06T05:36:32.551Z,96591.63
2023-03-06T05:38:59.650Z,96589.81
2023-03-06T05:41:26.792Z,96585.91
2023-03-06T05:43:53.923Z,96576.94
2023-03-06T05:46:21.076Z,96580.75
2023-03-06T05:48:48.214Z,96594.19
2023-03-06T05:51:16.655Z,96587.13
2023-03-06T05:53:43.764Z,96585.00
2023-03-06T05:56:11.209Z,96592.22
2023-03-06T05:58:39.094Z,96590.22
2023-03-06T06:01:10.640Z,96598.66
2023-03-06T06:03:37.833Z,96588.91
2023-03-06T06:06:06.132Z,96592.91
2023-03-06T06:08:34.956Z,96591.31
2023-03-06T06:11:03.954Z,96588.59
2023-03-06T06:13:31.762Z,96586.72
2023-03-06T06:15:58.925Z,96590.31
2023-03-06T06:18:26.040Z,96602.34
2023-03-06T06:20:54.940Z,96584.94
2023-03-06T06:23:22.968Z,96600.88
2023-03-06T06:25:51.387Z,96591.50
2023-03-06T06:28:18.596Z,96599.16
2023-03-06T06:30:45.712Z,96608.72
2023-03-06T06:33:12.810Z,96604.16
2023-03-06T06:35:39.910Z,96593.50
2023-03-06T06:38:07.077Z,96588.72
2023-03-06T06:40:34.167Z,96600.19
2023-03-06T06:43:02.654Z,96595.88
2023-03-06T06:45:29.830Z,96595.78
2023-03-06T06:47:56.977Z,96596.34
2023-03-06T06:50:24.139Z,96595.97
2023-03-06T06:52:51.267Z,96597.88
2023-03-06T06:55:18.529Z,96581.72
2023-03-06T06:57:45.665Z,96582.22
2023-03-06T07:00:15.389Z,96593.72
2023-03-06T07:02:42.546Z,96594.06
2023-03-06T07:05:10.187Z,96597.06
2023-03-06T07:07:38.093Z,96593.38
2023-03-06T07:10:06.863Z,96591.97
2023-03-06T07:12:33.998Z,96587.59
2023-03-06T07:15:01.089Z,96591.38
2023-03-06T07:17:29.501Z,96588.97
2023-03-06T07:19:56.638Z,96584.91
2023-03-06T07:22:23.785Z,96587.72
2023-03-06T07:24:50.865Z,96594.50
2023-03-06T07:27:17.990Z,96586.81
2023-03-06T07:29:45.082Z,96599.66
2023-03-06T07:32:12.273Z,96591.41
2023-03-06T07:34:40.764Z,96594.84
2023-03-06T07:37:07.835Z,96591.38
2023-03-06T07:39:35.322Z,96589.88
2023-03-06T07:42:02.483Z,96597.22
2023-03-06T07:44:29.678Z,96595.34
2023-03-06T07:46:56.820Z,96596.22
2023-03-06T07:49:23.977Z,96593.97
2023-03-06T07:51:52.413Z,96594.34
2023-03-06T07:54:19.488Z,96598.34
2023-03-06T07:56:50.201Z,96596.22
2023-03-06T07:59:17.451Z,96600.53
2023-03-06T08:01:44.620Z,96604.75
2023-03-06T08:04:11.765Z,96605.81
2023-03-06T08:06:38.863Z,96608.66
2023-03-06T08:09:08.090Z,96609.31
2023-03-06T08:11:35.209Z,96611.03
2023-03-06T08:14:02.282Z,96602.06
2023-03-06T08:16:30.307Z,96618.41
2023-03-06T08:18:57.696Z,96616.53
2023-03-06T08:21:26.929Z,96623.50
2023-03-06T08:23:54.510Z,96623.41
2023-03-06T08:26:25.451Z,96622.00
2023-03-06T08:28:53.121Z,96622.59
2023-03-06T08:31:25.734Z,96624.97
2023-03-06T08:33:53.304Z,96619.72
2023-03-06T08:36:20.415Z,96617.19
2023-03-06T08:38:47.553Z,96621.31
2023-03-06T08:41:14.647Z,96623.69
2023-03-06T08:43:43.128Z,96629.09
2023-03-06T08:46:11.114Z,96630.97
2023-03-06T08:48:38.582Z,96628.59
2023-03-06T08:51:07.837Z,96627.28
2023-03-06T08:53:43.231Z,96630.09
2023-03-06T08:56:16.381Z,96610.53
2023-03-06T08:58:45.369Z,96635.06
2023-03-06T09:01:14.100Z,96642.63
2023-03-06T09:03:41.230Z,96636.16
2023-03-06T09:06:08.428Z,96630.88
2023-03-06T09:08:35.593Z,96625.69
2023-03-06T09:11:02.700Z,96630.28
2023-03-06T09:13:29.977Z,96618.31
2023-03-06T09:15:58.435Z,96627.88
2023-03-06T09:18:25.654Z,96630.97
2023-03-06T09:20:52.781Z,96632.34
2023-03-06T09:23:19.976Z,96632.28
2023-03-06T09:25:52.126Z,96631.69
2023-03-06T09:28:19.262Z,96622.81
2023-03-06T09:30:46.455Z,96621.13
2023-03-06T09:33:15.408Z,96623.31
2023-03-06T09:35:48.322Z,96622.50
2023-03-06T09:38:15.413Z,96616.81
2023-03-06T09:40:55.365Z,96618.44
2023-03-06T09:43:28.907Z,96618.53
2023-03-06T09:45:56.515Z,96611.72
2023-03-06T09:48:34.386Z,96609.94
2023-03-06T09:51:04.255Z,96616.53
2023-03-06T09:53:50.781Z,96616.63
2023-03-06T09:56:20.678Z,96589.78
2023-03-06T09:58:51.903Z,96620.91
2023-03-06T10:01:23.679Z,96609.13
2023-03-06T10:03:56.100Z,96610.00
2023-03-06T10:06:28.978Z,96608.53
2023-03-06T10:09:00.709Z,96613.75
2023-03-06T10:11:33.791Z,96606.41
2023-03-06T10:14:16.652Z,96590.78
2023-03-06T10:16:44.039Z,96594.28
2023-03-06T10:19:16.135Z,96601.19
2023-03-06T10:21:48.685Z,96593.63
2023-03-06T10:24:46.010Z,96599.06
2023-03-06T10:27:22.656Z,96578.34
2023-03-06T10:30:03.623Z,96582.81
2023-03-06T10:32:48.306Z,96571.69
2023-03-06T10:35:22.695Z,96572.94
2023-03-06T10:37:49.842Z,96577.25
2023-03-06T10:40:20.118Z,96575.38
2023-03-06T10:42:47.250Z,96574.25
2023-03-06T10:45:16.064Z,96542.94
2023-03-06T10:47:43.657Z,96566.50
2023-03-06T10:50:24.216Z,96568.25
2023-03-06T10:53:02.280Z,96560.47
2023-03-06T10:55:31.599Z,96564.44
2023-03-06T10:58:17.622Z,96555.22
2023-03-06T11:00:45.143Z,96560.59
2023-03-06T11:03:22.049Z,96559.03
2023-03-06T11:06:01.436Z,96552.31
2023-03-06T11:08:29.067Z,96566.50
2023-03-06T11:10:58.841Z,96561.03
2023-03-06T11:13:28.414Z,96555.81
2023-03-06T11:16:00.225Z,96548.94
2023-03-06T11:18:31.476Z,96557.97
2023-03-06T11:21:00.385Z,96558.59
2023-03-06T11:23:36.718Z,96556.38
2023-03-06T11:26:26.379Z,96552.09
2023-03-06T11:29:03.310Z,96545.41
2023-03-06T11:31:33.669Z,96540.63
2023-03-06T11:34:07.489Z,96544.47
2023-03-06T11:36:42.845Z,96543.66
2023-03-06T11:39:21.506Z,96527.59
2023-03-06T11:41:56.838Z,96537.28
2023-03-06T11:44:34.904Z,96532.06
2023-03-06T11:47:08.423Z,96529.66
2023-03-06T11:49:40.931Z,96534.28
2023-03-06T11:52:19.849Z,96529.66
2023-03-06T11:54:53.447Z,96492.75
2023-03-06T11:57:24.768Z,96523.78
2023-03-06T12:00:03.635Z,96521.72
2023-03-06T12:02:42.738Z,96517.06
2023-03-06T12:05:32.420Z,96516.59
2023-03-06T12:08:11.965Z,96517.97
2023-03-06T12:10:51.440Z,96516.69
2023-03-06T12:13:31.028Z,96514.25
2023-03-06T12:16:12.737Z,96510.78
2023-03-06T12:18:50.535Z,96511.25
2023-03-06T12:21:26.574Z,96502.06
2023-03-06T12:24:14.648Z,96504.75
2023-03-06T12:26:57.095Z,96502.56
2023-03-06T12:29:36.962Z,96499.19
2023-03-06T12:32:15.403Z,96489.34
2023-03-06T12:35:05.996Z,96497.47
2023-03-06T12:37:47.983Z,96491.50
2023-03-06T12:40:39.845Z,96488.47
2023-03-06T12:43:28.582Z,96473.25
2023-03-06T12:45:59.271Z,96477.25
2023-03-06T12:48:32.829Z,96476.59
2023-03-06T12:51:00.761Z,96479.09
2023-03-06T12:53:30.425Z,96477.47
2023-03-06T12:56:01.624Z,96473.22
2023-03-06T12:58:51.194Z,96481.28
2023-03-06T13:01:41.983Z,96486.78
2023-03-06T13:04:44.270Z,96483.59
2023-03-06T13:07:28.889Z,96477.91
2023-03-06T13:10:06.665Z,96473.91
2023-03-06T13:12:56.875Z,96471.59
2023-03-06T13:15:37.697Z,96475.41
2023-03-06T13:18:46.233Z,96476.81
2023-03-06T13:21:45.044Z,96469.84
2023-03-06T13:24:17.989Z,96474.59
2023-03-06T13:27:00.209Z,96474.97
2023-03-06T13:30:06.017Z,96473.88
2023-03-06T13:32:35.188Z,96471.97
2023-03-06T13:35:25.501Z,96477.94
2023-03-06T13:37:54.502Z,96481.00
2023-03-06T13:40:30.906Z,96484.47
2023-03-06T13:43:16.914Z,96486.91
2023-03-06T13:45:45.873Z,96480.69
2023-03-06T13:48:44.125Z,96488.38
2023-03-06T13:51:23.418Z,96481.72
2023-03-06T13:54:17.607Z,96487.13
2023-03-06T13:57:11.633Z,96487.47
2023-03-06T14:00:08.304Z,96476.88
2023-03-06T14:03:09.151Z,96477.53
2023-03-06T14:05:42.739Z,96470.75
2023-03-06T14:08:15.143Z,96470.69
2023-03-06T14:10:44.562Z,96489.84
2023-03-06T14:13:17.432Z,96496.97
2023-03-06T14:15:46.382Z,96507.25
2023-03-06T14:18:21.229Z,96506.28
2023-03-06T14:20:51.391Z,96505.00
2023-03-06T14:23:30.146Z,96515.75
2023-03-06T14:26:05.026Z,96518.47
2023-03-06T14:28:34.381Z,96520.78
2023-03-06T14:31:03.741Z,96521.84
2023-03-06T14:33:34.496Z,96514.50
2023-03-06T14:36:04.119Z,96502.03
2023-03-06T14:38:36.633Z,96497.44
2023-03-06T14:41:05.964Z,96494.25
2023-03-06T14:43:33.225Z,96474.81
2023-03-06T14:46:01.824Z,96496.84
2023-03-06T14:48:39.261Z,96489.44
2023-03-06T14:51:13.035Z,96486.13
2023-03-06T14:53:40.613Z,96484.53
2023-03-06T14:56:16.133Z,96474.56
2023-03-06T14:58:50.054Z,96480.22
2023-03-06T15:01:23.223Z,96483.75
2023-03-06T15:03:53.136Z,96475.78
2023-03-06T15:06:23.170Z,96473.09
2023-03-06T15:08:59.337Z,96482.50
2023-03-06T15:11:51.690Z,96476.19
2023-03-06T15:14:21.176Z,96469.78
2023-03-06T15:16:48.356Z,96481.47
2023-03-06T15:19:19.152Z,96482.31
2023-03-06T15:21:48.878Z,96480.09
2023-03-06T15:24:34.732Z,96482.31
2023-03-06T15:27:05.056Z,96481.22
2023-03-06T15:29:33.064Z,96488.00
2023-03-06T15:32:15.153Z,96479.91
2023-03-06T15:34:42.428Z,96487.00
2023-03-06T15:37:27.716Z,96492.03
2023-03-06T15:40:17.526Z,96488.84
2023-03-06T15:42:46.413Z,96491.25
2023-03-06T15:45:16.357Z,96486.34
2023-03-06T15:47:43.643Z,96486.66
2023-03-06T15:50:20.062Z,96484.59
2023-03-06T15:52:48.087Z,96484.44
2023-03-06T15:55:17.361Z,96471.53
2023-03-06T15:57:50.381Z,96477.31
2023-03-06T16:00:27.713Z,96473.94
2023-03-06T16:02:55.493Z,96472.91
2023-03-06T16:05:23.229Z,96476.53
2023-03-06T16:07:50.337Z,96477.91
2023-03-06T16:10:19.081Z,96472.25
2023-03-06T16:12:49.679Z,96467.78
2023-03-06T16:15:19.403Z,96473.94
2023-03-06T16:17:46.730Z,96471.56
2023-03-06T16:20:15.239Z,96472.53
2023-03-06T16:22:42.357Z,96465.56
2023-03-06T16:25:09.890Z,96479.72
2023-03-06T16:27:37.249Z,96480.94
2023-03-06T16:30:07.836Z,96480.94
2023-03-06T16:32:34.947Z,96479.41
2023-03-06T16:35:02.065Z,96482.13
2023-03-06T16:37:29.340Z,96490.88
2023-03-06T16:39:56.431Z,96482.19
2023-03-06T16:42:23.516Z,96457.81
2023-03-06T16:44:50.672Z,96468.94
2023-03-06T16:47:19.167Z,96475.28
2023-03-06T16:49:46.314Z,96480.88
2023-03-06T16:52:13.488Z,96486.84
2023-03-06T16:54:41.414Z,96479.25
2023-03-06T16:57:13.564Z,96489.84
2023-03-06T16:59:41.059Z,96483.66
2023-03-06T17:02:09.703Z,96496.03
2023-03-06T17:04:38.457Z,96484.59
2023-03-06T17:07:05.889Z,96491.75
2023-03-06T17:09:32.988Z,96491.75
2023-03-06T17:12:00.080Z,96489.34
2023-03-06T17:14:27.165Z,96498.09
2023-03-06T17:16:54.296Z,96502.78
2023-03-06T17:19:21.398Z,96496.59
2023-03-06T17:21:49.822Z,96504.38
2023-03-06T17:24:16.909Z,96505.16
2023-03-06T17:26:44.066Z,96512.63
2023-03-06T17:29:11.188Z,96509.69
2023-03-06T17:31:38.300Z,96513.31
2023-03-06T17:34:05.475Z,96514.78
2023-03-06T17:36:32.815Z,96519.06
2023-03-06T17:39:02.520Z,96518.53
2023-03-06T17:41:29.659Z,96524.03
2023-03-06T17:43:57.161Z,96533.44
2023-03-06T17:46:25.140Z,96528.31
2023-03-06T17:48:52.291Z,96524.50
2023-03-06T17:51:19.420Z,96533.88
2023-03-06T17:53:46.520Z,96531.66
2023-03-06T17:56:15.566Z,96534.06
2023-03-06T17:58:42.654Z,96537.06
2023-03-06T18:01:10.768Z,96530.09
2023-03-06T18:03:38.695Z,96532.91
2023-03-06T18:06:06.687Z,96540.31
2023-03-06T18:08:33.802Z,96544.91
2023-03-06T18:11:01.264Z,96546.50
2023-03-06T18:13:29.956Z,96551.06
2023-03-06T18:15:57.201Z,96547.22
2023-03-06T18:18:24.658Z,96556.59
2023-03-06T18:20:51.972Z,96551.31
2023-03-06T18:23:19.157Z,96550.84
2023-03-06T18:25:46.372Z,96559.69
2023-03-06T18:28:13.490Z,96557.63
2023-03-06T18:30:42.158Z,96559.03
2023-03-06T18:33:10.167Z,96563.44
2023-03-06T18:35:37.800Z,96556.47
2023-03-06T18:38:04.943Z,96564.53
2023-03-06T18:40:32.386Z,96562.81
2023-03-06T18:42:59.472Z,96556.91
2023-03-06T18:45:26.623Z,96555.00
2023-03-06T18:47:56.022Z,96555.97
2023-03-06T18:50:23.122Z,96559.28
2023-03-06T18:52:50.248Z,96552.78
2023-03-06T18:55:17.406Z,96556.91
2023-03-06T18:57:44.497Z,96561.16
2023-03-06T19:00:12.544Z,96552.94
2023-03-06T19:02:39.647Z,96562.88
2023-03-06T19:05:08.624Z,96558.47
2023-03-06T19:07:35.769Z,96564.78
2023-03-06T19:10:02.884Z,96569.38
2023-03-06T19:12:32.263Z,96559.41
2023-03-06T19:14:59.454Z,96560.81
2023-03-06T19:17:26.706Z,96569.19
2023-03-06T19:19:53.811Z,96563.63
2023-03-06T19:22:22.268Z,96566.81
2023-03-06T19:24:49.600Z,96563.13
2023-03-06T19:27:16.678Z,96566.00
2023-03-06T19:29:43.780Z,96563.63
2023-03-06T19:32:11.050Z,96569.19
2023-03-06T19:34:38.235Z,96562.09
2023-03-06T19:37:05.467Z,96555.19
2023-03-06T19:39:33.917Z,96562.97
2023-03-06T19:42:02.257Z,96558.47
2023-03-06T19:44:29.352Z,96562.47
2023-03-06T19:46:56.509Z,96562.19
2023-03-06T19:49:23.605Z,96562.19
2023-03-06T19:51:50.704Z,96560.56
2023-03-06T19:54:17.812Z,96559.78
2023-03-06T19:56:46.250Z,96562.19
2023-03-06T19:59:13.347Z,96567.88
2023-03-06T20:01:40.490Z,96564.25
2023-03-06T20:04:07.784Z,96561.50
2023-03-06T20:06:35.001Z,96573.84
2023-03-06T20:09:04.300Z,96571.78
2023-03-06T20:11:31.551Z,96571.09
2023-03-06T20:14:01.959Z,96571.09
2023-03-06T20:16:29.565Z,96557.75
2023-03-06T20:18:58.647Z,96571.09
2023-03-06T20:21:27.820Z,96568.09
2023-03-06T20:23:55.970Z,96569.88
2023-03-06T20:26:23.473Z,96574.16
2023-03-06T20:28:50.729Z,96569.38
2023-03-06T20:31:20.880Z,96569.78
2023-03-06T20:33:50.453Z,96556.38
2023-03-06T20:36:19.898Z,96565.13
2023-03-06T20:38:47.487Z,96562.06
2023-03-06T20:41:15.525Z,96563.66
2023-03-06T20:43:42.941Z,96567.56
2023-03-06T20:46:12.006Z,96563.56
2023-03-06T20:48:41.007Z,96574.66
2023-03-06T20:51:12.095Z,96572.63
2023-03-06T20:53:39.199Z,96572.75
2023-03-06T20:56:10.574Z,96574.34
2023-03-06T20:58:37.684Z,96564.69
2023-03-06T21:01:05.035Z,96554.69
2023-03-06T21:03:32.129Z,96556.59
2023-03-06T21:06:00.786Z,96557.19
2023-03-06T21:08:27.875Z,96555.19
2023-03-06T21:10:54.971Z,96561.38
2023-03-06T21:13:22.109Z,96556.31
2023-03-06T21:15:49.229Z,96553.78
2023-03-06T21:18:16.349Z,96557.88
2023-03-06T21:20:43.482Z,96548.81
2023-03-06T21:23:11.934Z,96554.69
2023-03-06T21:25:47.055Z,96555.28
2023-03-06T21:28:14.244Z,96542.75
2023-03-06T21:30:41.464Z,96548.44
2023-03-06T21:33:08.592Z,96547.84
2023-03-06T21:35:37.320Z,96544.16
2023-03-06T21:38:04.503Z,96542.25
2023-03-06T21:40:33.445Z,96538.38
2023-03-06T21:43:00.606Z,96533.59
2023-03-06T21:45:28.079Z,96533.09
2023-03-06T21:47:55.340Z,96545.38
2023-03-06T21:50:23.134Z,96529.41
2023-03-06T21:52:50.458Z,96536.81
2023-03-06T21:55:17.761Z,96529.81
2023-03-06T21:57:49.638Z,96525.13
2023-03-06T22:00:17.157Z,96518.34
2023-03-06T22:02:44.298Z,96526.69
2023-03-06T22:05:11.376Z,96521.66
2023-03-06T22:07:38.724Z,96521.94
2023-03-06T22:10:07.696Z,96516.06
2023-03-06T22:12:34.996Z,96524.44
2023-03-06T22:15:05.534Z,96513.75
2023-03-06T22:17:33.058Z,96524.72
2023-03-06T22:20:00.159Z,96525.84
2023-03-06T22:22:27.269Z,96521.53
2023-03-06T22:24:54.447Z,96516.66
2023-03-06T22:27:21.763Z,96506.91
2023-03-06T22:29:48.854Z,96514.69
2023-03-06T22:32:17.532Z,96511.50
2023-03-06T22:34:44.685Z,96513.41
2023-03-06T22:37:11.778Z,96513.41
2023-03-06T22:39:39.136Z,96510.72
2023-03-06T22:42:06.349Z,96509.88
2023-03-06T22:44:33.457Z,96508.00
2023-03-06T22:47:00.654Z,96493.25
2023-03-06T22:49:29.090Z,96506.31
2023-03-06T22:51:56.188Z,96500.63
2023-03-06T22:54:23.410Z,96513.28
2023-03-06T22:56:50.495Z,96495.94
2023-03-06T22:59:17.583Z,96504.41
2023-03-06T23:01:44.672Z,96500.44
2023-03-06T23:04:11.805Z,96495.84
2023-03-06T23:06:41.492Z,96493.56
2023-03-06T23:09:13.966Z,96491.66
2023-03-06T23:11:41.084Z,96497.84
2023-03-06T23:14:11.234Z,96497.34
2023-03-06T23:16:38.596Z,96488.28
2023-03-06T23:19:06.395Z,96483.81
2023-03-06T23:21:33.647Z,96488.09
2023-03-06T23:24:02.634Z,96473.16
2023-03-06T23:26:31.440Z,96485.41
2023-03-06T23:28:58.526Z,96478.13
2023-03-06T23:31:27.370Z,96476.53
2023-03-06T23:33:56.340Z,96491.47
2023-03-06T23:36:23.432Z,96483.69
2023-03-06T23:38:50.726Z,96486.28
2023-03-06T23:41:20.322Z,96479.00
2023-03-06T23:43:48.441Z,96471.94
2023-03-06T23:46:16.088Z,96485.31
2023-03-06T23:48:44.060Z,96495.56
2023-03-06T23:51:13.995Z,96475.84
2023-03-06T23:53:41.450Z,96485.91
2023-03-06T23:56:09.052Z,96487.00
2023-03-06T23:58:37.632Z,96487.59
